sensor_id;sensor_type;location;lat;lon;timestamp;temperature;humidity
55369;DHT22;41247;49.736;8.752;2023-07-31T00:01:37;16.70;99.90
55369;DHT22;41247;49.736;8.752;2023-07-31T00:05:18;16.70;99.90
55369;DHT22;41247;49.736;8.752;2023-07-31T00:08:58;16.60;99.90
55369;DHT22;41247;49.736;8.752;2023-07-31T00:12:41;16.60;99.90
55369;DHT22;41247;49.736;8.752;2023-07-31T00:16:23;16.60;99.90
55369;DHT22;41247;49.736;8.752;2023-07-31T00:20:04;16.50;99.90
55369;DHT22;41247;49.736;8.752;2023-07-31T00:23:45;16.60;99.90
55369;DHT22;41247;49.736;8.752;2023-07-31T00:27:26;16.60;99.90
55369;DHT22;41247;49.736;8.752;2023-07-31T00:31:06;16.60;99.90
55369;DHT22;41247;49.736;8.752;2023-07-31T00:34:48;16.60;99.90
55369;DHT22;41247;49.736;8.752;2023-07-31T00:38:29;16.70;99.90
55369;DHT22;41247;49.736;8.752;2023-07-31T00:42:09;16.70;99.90
55369;DHT22;41247;49.736;8.752;2023-07-31T00:45:50;16.70;99.90
55369;DHT22;41247;49.736;8.752;2023-07-31T00:49:30;16.80;99.90
55369;DHT22;41247;49.736;8.752;2023-07-31T00:53:11;16.90;99.90
55369;DHT22;41247;49.736;8.752;2023-07-31T00:56:53;16.90;99.90
55369;DHT22;41247;49.736;8.752;2023-07-31T01:00:34;16.90;99.90
55369;DHT22;41247;49.736;8.752;2023-07-31T01:04:16;17.00;99.90
55369;DHT22;41247;49.736;8.752;2023-07-31T01:08:08;17.00;99.90
55369;DHT22;41247;49.736;8.752;2023-07-31T01:12:02;17.00;99.90
55369;DHT22;41247;49.736;8.752;2023-07-31T01:15:43;17.00;99.90
55369;DHT22;41247;49.736;8.752;2023-07-31T01:19:25;17.00;99.90
55369;DHT22;41247;49.736;8.752;2023-07-31T01:23:50;17.00;99.90
55369;DHT22;41247;49.736;8.752;2023-07-31T01:27:47;17.00;99.90
55369;DHT22;41247;49.736;8.752;2023-07-31T01:31:39;17.00;99.90
55369;DHT22;41247;49.736;8.752;2023-07-31T01:35:21;17.00;99.90
55369;DHT22;41247;49.736;8.752;2023-07-31T01:39:02;17.00;99.90
55369;DHT22;41247;49.736;8.752;2023-07-31T01:42:43;17.00;99.90
55369;DHT22;41247;49.736;8.752;2023-07-31T01:46:23;16.90;99.90
55369;DHT22;41247;49.736;8.752;2023-07-31T01:50:04;16.90;99.90
55369;DHT22;41247;49.736;8.752;2023-07-31T01:53:45;16.90;99.90
55369;DHT22;41247;49.736;8.752;2023-07-31T01:57:26;16.90;99.90
55369;DHT22;41247;49.736;8.752;2023-07-31T02:01:07;16.80;99.90
55369;DHT22;41247;49.736;8.752;2023-07-31T02:04:47;16.80;99.90
55369;DHT22;41247;49.736;8.752;2023-07-31T02:08:28;16.80;99.90
55369;DHT22;41247;49.736;8.752;2023-07-31T02:12:08;16.80;99.90
55369;DHT22;41247;49.736;8.752;2023-07-31T02:15:49;16.70;99.90
55369;DHT22;41247;49.736;8.752;2023-07-31T02:19:29;16.70;99.90
55369;DHT22;41247;49.736;8.752;2023-07-31T02:23:10;16.70;99.90
55369;DHT22;41247;49.736;8.752;2023-07-31T02:26:51;16.60;99.90
55369;DHT22;41247;49.736;8.752;2023-07-31T02:30:31;16.60;99.90
55369;DHT22;41247;49.736;8.752;2023-07-31T02:34:12;16.50;99.90
55369;DHT22;41247;49.736;8.752;2023-07-31T02:37:52;16.50;99.90
55369;DHT22;41247;49.736;8.752;2023-07-31T02:41:33;16.50;99.90
55369;DHT22;41247;49.736;8.752;2023-07-31T02:45:14;16.40;99.90
55369;DHT22;41247;49.736;8.752;2023-07-31T02:48:54;16.40;99.90
55369;DHT22;41247;49.736;8.752;2023-07-31T02:52:35;16.30;99.90
55369;DHT22;41247;49.736;8.752;2023-07-31T02:56:15;16.30;99.90
55369;DHT22;41247;49.736;8.752;2023-07-31T02:59:56;16.30;99.90
55369;DHT22;41247;49.736;8.752;2023-07-31T03:03:36;16.30;99.90
55369;DHT22;41247;49.736;8.752;2023-07-31T03:07:17;16.30;99.90
55369;DHT22;41247;49.736;8.752;2023-07-31T03:10:58;16.20;99.90
55369;DHT22;41247;49.736;8.752;2023-07-31T03:14:38;16.20;99.90
55369;DHT22;41247;49.736;8.752;2023-07-31T03:18:19;16.00;99.90
55369;DHT22;41247;49.736;8.752;2023-07-31T03:22:00;15.90;99.90
55369;DHT22;41247;49.736;8.752;2023-07-31T03:25:55;15.70;99.90
55369;DHT22;41247;49.736;8.752;2023-07-31T03:29:36;15.70;99.90
55369;DHT22;41247;49.736;8.752;2023-07-31T03:33:17;15.60;99.90
55369;DHT22;41247;49.736;8.752;2023-07-31T03:36:58;15.60;99.90
55369;DHT22;41247;49.736;8.752;2023-07-31T03:40:39;15.60;99.90
55369;DHT22;41247;49.736;8.752;2023-07-31T03:44:20;15.60;99.90
55369;DHT22;41247;49.736;8.752;2023-07-31T03:48:01;15.50;99.90
55369;DHT22;41247;49.736;8.752;2023-07-31T03:51:42;15.50;99.90
55369;DHT22;41247;49.736;8.752;2023-07-31T03:55:23;15.60;99.90
55369;DHT22;41247;49.736;8.752;2023-07-31T03:59:03;15.50;99.90
55369;DHT22;41247;49.736;8.752;2023-07-31T04:02:44;15.50;99.90
55369;DHT22;41247;49.736;8.752;2023-07-31T04:06:24;15.50;99.90
55369;DHT22;41247;49.736;8.752;2023-07-31T04:10:05;15.50;99.90
55369;DHT22;41247;49.736;8.752;2023-07-31T04:13:46;15.50;99.90
55369;DHT22;41247;49.736;8.752;2023-07-31T04:17:26;15.50;99.90
55369;DHT22;41247;49.736;8.752;2023-07-31T04:21:09;15.50;99.90
55369;DHT22;41247;49.736;8.752;2023-07-31T04:24:50;15.60;99.90
55369;DHT22;41247;49.736;8.752;2023-07-31T04:28:31;15.60;99.90
55369;DHT22;41247;49.736;8.752;2023-07-31T04:32:11;15.70;99.90
55369;DHT22;41247;49.736;8.752;2023-07-31T04:36:07;15.70;99.90
55369;DHT22;41247;49.736;8.752;2023-07-31T04:40:06;15.80;99.90
55369;DHT22;41247;49.736;8.752;2023-07-31T04:44:28;15.70;99.90
55369;DHT22;41247;49.736;8.752;2023-07-31T04:48:09;15.80;99.90
55369;DHT22;41247;49.736;8.752;2023-07-31T04:52:28;15.80;99.90
55369;DHT22;41247;49.736;8.752;2023-07-31T04:56:09;15.90;99.90
55369;DHT22;41247;49.736;8.752;2023-07-31T05:00:14;15.90;99.90
55369;DHT22;41247;49.736;8.752;2023-07-31T05:04:34;15.90;99.90
55369;DHT22;41247;49.736;8.752;2023-07-31T05:08:15;15.90;99.90
55369;DHT22;41247;49.736;8.752;2023-07-31T05:11:55;16.00;99.90
55369;DHT22;41247;49.736;8.752;2023-07-31T05:15:36;16.00;99.90
55369;DHT22;41247;49.736;8.752;2023-07-31T05:19:16;16.00;99.90
55369;DHT22;41247;49.736;8.752;2023-07-31T05:23:27;16.00;99.90
55369;DHT22;41247;49.736;8.752;2023-07-31T05:27:08;16.10;99.90
55369;DHT22;41247;49.736;8.752;2023-07-31T05:31:10;16.10;99.90
55369;DHT22;41247;49.736;8.752;2023-07-31T05:35:11;16.10;99.90
55369;DHT22;41247;49.736;8.752;2023-07-31T05:38:52;16.10;99.90
55369;DHT22;41247;49.736;8.752;2023-07-31T05:42:34;16.10;99.90
55369;DHT22;41247;49.736;8.752;2023-07-31T05:46:38;16.10;99.90
55369;DHT22;41247;49.736;8.752;2023-07-31T05:50:44;16.20;99.90
55369;DHT22;41247;49.736;8.752;2023-07-31T05:54:32;16.20;99.90
55369;DHT22;41247;49.736;8.752;2023-07-31T05:58:37;16.20;99.90
55369;DHT22;41247;49.736;8.752;2023-07-31T06:02:24;16.30;99.90
55369;DHT22;41247;49.736;8.752;2023-07-31T06:06:05;16.30;99.90
55369;DHT22;41247;49.736;8.752;2023-07-31T06:09:50;16.20;99.90
55369;DHT22;41247;49.736;8.752;2023-07-31T06:13:30;16.20;99.90
55369;DHT22;41247;49.736;8.752;2023-07-31T06:17:12;16.20;99.90
55369;DHT22;41247;49.736;8.752;2023-07-31T06:20:53;16.30;99.90
55369;DHT22;41247;49.736;8.752;2023-07-31T06:24:35;16.40;99.90
55369;DHT22;41247;49.736;8.752;2023-07-31T06:28:28;16.60;99.90
55369;DHT22;41247;49.736;8.752;2023-07-31T06:32:11;16.70;99.90
55369;DHT22;41247;49.736;8.752;2023-07-31T06:36:02;16.80;99.90
55369;DHT22;41247;49.736;8.752;2023-07-31T06:40:10;16.90;99.90
55369;DHT22;41247;49.736;8.752;2023-07-31T06:44:01;17.00;99.90
55369;DHT22;41247;49.736;8.752;2023-07-31T06:48:03;17.10;99.90
55369;DHT22;41247;49.736;8.752;2023-07-31T06:51:56;17.00;99.90
55369;DHT22;41247;49.736;8.752;2023-07-31T06:55:52;16.90;99.90
55369;DHT22;41247;49.736;8.752;2023-07-31T06:59:33;16.80;99.90
55369;DHT22;41247;49.736;8.752;2023-07-31T07:03:13;16.90;99.90
55369;DHT22;41247;49.736;8.752;2023-07-31T07:06:54;17.00;99.90
55369;DHT22;41247;49.736;8.752;2023-07-31T07:10:35;17.10;99.90
55369;DHT22;41247;49.736;8.752;2023-07-31T07:14:15;17.20;99.90
55369;DHT22;41247;49.736;8.752;2023-07-31T07:17:56;17.20;99.90
55369;DHT22;41247;49.736;8.752;2023-07-31T07:21:36;17.20;99.90
55369;DHT22;41247;49.736;8.752;2023-07-31T07:25:17;17.30;99.90
55369;DHT22;41247;49.736;8.752;2023-07-31T07:28:57;17.40;99.90
55369;DHT22;41247;49.736;8.752;2023-07-31T07:32:38;17.60;99.90
55369;DHT22;41247;49.736;8.752;2023-07-31T07:36:19;17.90;99.90
55369;DHT22;41247;49.736;8.752;2023-07-31T07:40:02;18.00;99.90
55369;DHT22;41247;49.736;8.752;2023-07-31T07:43:43;18.10;99.90
55369;DHT22;41247;49.736;8.752;2023-07-31T07:47:23;18.30;99.90
55369;DHT22;41247;49.736;8.752;2023-07-31T07:51:04;18.60;99.90
55369;DHT22;41247;49.736;8.752;2023-07-31T07:54:44;18.70;99.90
55369;DHT22;41247;49.736;8.752;2023-07-31T07:58:25;18.80;99.90
55369;DHT22;41247;49.736;8.752;2023-07-31T08:02:06;19.00;99.90
55369;DHT22;41247;49.736;8.752;2023-07-31T08:05:46;19.00;99.90
55369;DHT22;41247;49.736;8.752;2023-07-31T08:09:28;18.90;99.90
55369;DHT22;41247;49.736;8.752;2023-07-31T08:13:17;18.60;99.90
55369;DHT22;41247;49.736;8.752;2023-07-31T08:16:58;18.70;99.90
55369;DHT22;41247;49.736;8.752;2023-07-31T08:20:42;18.90;99.90
55369;DHT22;41247;49.736;8.752;2023-07-31T08:24:22;19.10;99.90
55369;DHT22;41247;49.736;8.752;2023-07-31T08:28:04;19.30;99.90
55369;DHT22;41247;49.736;8.752;2023-07-31T08:31:47;19.50;99.90
55369;DHT22;41247;49.736;8.752;2023-07-31T08:35:28;19.50;99.90
55369;DHT22;41247;49.736;8.752;2023-07-31T08:39:09;19.30;99.90
55369;DHT22;41247;49.736;8.752;2023-07-31T08:42:54;19.40;99.90
55369;DHT22;41247;49.736;8.752;2023-07-31T08:46:38;19.50;99.90
55369;DHT22;41247;49.736;8.752;2023-07-31T08:50:20;19.90;99.90
55369;DHT22;41247;49.736;8.752;2023-07-31T08:54:01;20.20;99.90
55369;DHT22;41247;49.736;8.752;2023-07-31T08:57:43;20.40;99.90
55369;DHT22;41247;49.736;8.752;2023-07-31T09:01:23;20.30;99.90
55369;DHT22;41247;49.736;8.752;2023-07-31T09:05:06;20.00;99.90
55369;DHT22;41247;49.736;8.752;2023-07-31T09:08:47;19.60;99.90
55369;DHT22;41247;49.736;8.752;2023-07-31T09:12:28;19.40;99.90
55369;DHT22;41247;49.736;8.752;2023-07-31T09:16:09;19.40;99.90
55369;DHT22;41247;49.736;8.752;2023-07-31T09:19:49;19.50;99.90
55369;DHT22;41247;49.736;8.752;2023-07-31T09:23:44;20.10;99.90
55369;DHT22;41247;49.736;8.752;2023-07-31T09:27:25;20.30;99.90
55369;DHT22;41247;49.736;8.752;2023-07-31T09:31:07;20.30;99.90
55369;DHT22;41247;49.736;8.752;2023-07-31T09:34:48;20.10;99.90
55369;DHT22;41247;49.736;8.752;2023-07-31T09:38:29;19.60;99.90
55369;DHT22;41247;49.736;8.752;2023-07-31T09:42:09;19.40;99.90
55369;DHT22;41247;49.736;8.752;2023-07-31T09:45:55;19.30;99.90
55369;DHT22;41247;49.736;8.752;2023-07-31T09:49:36;19.20;99.90
55369;DHT22;41247;49.736;8.752;2023-07-31T09:53:17;19.30;99.90
55369;DHT22;41247;49.736;8.752;2023-07-31T09:56:58;19.70;99.90
55369;DHT22;41247;49.736;8.752;2023-07-31T10:00:40;20.10;99.90
55369;DHT22;41247;49.736;8.752;2023-07-31T10:04:23;20.20;99.90
55369;DHT22;41247;49.736;8.752;2023-07-31T10:08:10;20.30;99.90
55369;DHT22;41247;49.736;8.752;2023-07-31T10:11:59;20.30;99.90
55369;DHT22;41247;49.736;8.752;2023-07-31T10:15:41;20.20;99.90
55369;DHT22;41247;49.736;8.752;2023-07-31T10:19:22;20.00;99.90
55369;DHT22;41247;49.736;8.752;2023-07-31T10:23:03;19.90;99.90
55369;DHT22;41247;49.736;8.752;2023-07-31T10:26:45;20.00;99.90
55369;DHT22;41247;49.736;8.752;2023-07-31T10:30:30;19.90;99.90
55369;DHT22;41247;49.736;8.752;2023-07-31T10:34:13;19.90;99.90
55369;DHT22;41247;49.736;8.752;2023-07-31T10:37:54;20.00;99.90
55369;DHT22;41247;49.736;8.752;2023-07-31T10:41:36;20.10;99.90
55369;DHT22;41247;49.736;8.752;2023-07-31T10:45:39;20.50;99.90
55369;DHT22;41247;49.736;8.752;2023-07-31T10:49:22;20.90;99.90
55369;DHT22;41247;49.736;8.752;2023-07-31T10:53:03;21.30;99.90
55369;DHT22;41247;49.736;8.752;2023-07-31T10:56:45;21.50;99.90
55369;DHT22;41247;49.736;8.752;2023-07-31T11:00:28;21.30;99.90
55369;DHT22;41247;49.736;8.752;2023-07-31T11:04:12;21.10;99.90
55369;DHT22;41247;49.736;8.752;2023-07-31T11:07:52;20.90;99.90
55369;DHT22;41247;49.736;8.752;2023-07-31T11:11:36;20.70;99.90
55369;DHT22;41247;49.736;8.752;2023-07-31T11:15:16;21.00;99.90
55369;DHT22;41247;49.736;8.752;2023-07-31T11:18:58;21.50;99.90
55369;DHT22;41247;49.736;8.752;2023-07-31T11:22:39;21.90;99.90
55369;DHT22;41247;49.736;8.752;2023-07-31T11:26:19;22.10;99.90
55369;DHT22;41247;49.736;8.752;2023-07-31T11:30:01;22.10;99.90
55369;DHT22;41247;49.736;8.752;2023-07-31T11:33:42;21.70;99.90
55369;DHT22;41247;49.736;8.752;2023-07-31T11:37:23;21.40;99.90
55369;DHT22;41247;49.736;8.752;2023-07-31T11:41:04;21.00;99.90
55369;DHT22;41247;49.736;8.752;2023-07-31T11:44:45;20.60;99.90
55369;DHT22;41247;49.736;8.752;2023-07-31T11:48:30;20.20;99.90
55369;DHT22;41247;49.736;8.752;2023-07-31T11:52:12;20.00;99.90
55369;DHT22;41247;49.736;8.752;2023-07-31T11:55:53;20.00;99.90
55369;DHT22;41247;49.736;8.752;2023-07-31T11:59:34;20.20;99.90
55369;DHT22;41247;49.736;8.752;2023-07-31T12:03:15;20.30;99.90
55369;DHT22;41247;49.736;8.752;2023-07-31T12:06:56;20.10;99.90
55369;DHT22;41247;49.736;8.752;2023-07-31T12:10:37;20.20;99.90
55369;DHT22;41247;49.736;8.752;2023-07-31T12:14:20;20.50;99.90
55369;DHT22;41247;49.736;8.752;2023-07-31T12:18:09;20.70;99.90
55369;DHT22;41247;49.736;8.752;2023-07-31T12:21:52;21.10;99.90
55369;DHT22;41247;49.736;8.752;2023-07-31T12:25:33;21.30;99.90
55369;DHT22;41247;49.736;8.752;2023-07-31T12:29:14;21.70;99.90
55369;DHT22;41247;49.736;8.752;2023-07-31T12:32:55;21.80;99.90
55369;DHT22;41247;49.736;8.752;2023-07-31T12:36:36;21.60;99.90
55369;DHT22;41247;49.736;8.752;2023-07-31T12:40:16;21.40;99.90
55369;DHT22;41247;49.736;8.752;2023-07-31T12:43:57;21.00;99.90
55369;DHT22;41247;49.736;8.752;2023-07-31T12:47:38;20.70;99.90
55369;DHT22;41247;49.736;8.752;2023-07-31T12:51:19;20.40;99.90
55369;DHT22;41247;49.736;8.752;2023-07-31T12:54:59;20.40;99.90
55369;DHT22;41247;49.736;8.752;2023-07-31T12:58:40;20.30;99.90
55369;DHT22;41247;49.736;8.752;2023-07-31T13:02:20;20.50;99.90
55369;DHT22;41247;49.736;8.752;2023-07-31T13:06:01;20.50;99.90
55369;DHT22;41247;49.736;8.752;2023-07-31T13:09:41;20.60;99.90
55369;DHT22;41247;49.736;8.752;2023-07-31T13:13:22;20.70;99.90
55369;DHT22;41247;49.736;8.752;2023-07-31T13:17:03;20.80;99.90
55369;DHT22;41247;49.736;8.752;2023-07-31T13:20:43;20.80;99.90
55369;DHT22;41247;49.736;8.752;2023-07-31T13:24:24;20.70;99.90
55369;DHT22;41247;49.736;8.752;2023-07-31T13:28:05;20.60;99.90
55369;DHT22;41247;49.736;8.752;2023-07-31T13:31:45;20.80;99.90
55369;DHT22;41247;49.736;8.752;2023-07-31T13:35:26;21.00;99.90
55369;DHT22;41247;49.736;8.752;2023-07-31T13:39:06;21.00;99.90
55369;DHT22;41247;49.736;8.752;2023-07-31T13:42:47;20.80;99.90
55369;DHT22;41247;49.736;8.752;2023-07-31T13:46:27;20.60;99.90
55369;DHT22;41247;49.736;8.752;2023-07-31T13:50:08;20.40;99.90
55369;DHT22;41247;49.736;8.752;2023-07-31T13:53:49;20.20;99.90
55369;DHT22;41247;49.736;8.752;2023-07-31T13:57:30;20.10;99.90
55369;DHT22;41247;49.736;8.752;2023-07-31T14:01:10;20.10;99.90
55369;DHT22;41247;49.736;8.752;2023-07-31T14:04:51;20.00;99.90
55369;DHT22;41247;49.736;8.752;2023-07-31T14:08:31;20.00;99.90
55369;DHT22;41247;49.736;8.752;2023-07-31T14:12:12;20.00;99.90
55369;DHT22;41247;49.736;8.752;2023-07-31T14:15:53;19.90;99.90
55369;DHT22;41247;49.736;8.752;2023-07-31T14:19:33;19.90;99.90
55369;DHT22;41247;49.736;8.752;2023-07-31T14:23:14;19.80;99.90
55369;DHT22;41247;49.736;8.752;2023-07-31T14:26:54;19.80;99.90
55369;DHT22;41247;49.736;8.752;2023-07-31T14:30:35;19.80;99.90
55369;DHT22;41247;49.736;8.752;2023-07-31T14:34:17;19.80;99.90
55369;DHT22;41247;49.736;8.752;2023-07-31T14:37:58;19.80;99.90
55369;DHT22;41247;49.736;8.752;2023-07-31T14:41:39;19.80;99.90
55369;DHT22;41247;49.736;8.752;2023-07-31T14:45:19;19.80;99.90
55369;DHT22;41247;49.736;8.752;2023-07-31T14:49:00;19.80;99.90
55369;DHT22;41247;49.736;8.752;2023-07-31T14:52:40;19.90;99.90
55369;DHT22;41247;49.736;8.752;2023-07-31T14:56:21;20.00;99.90
55369;DHT22;41247;49.736;8.752;2023-07-31T15:00:02;20.00;99.90
55369;DHT22;41247;49.736;8.752;2023-07-31T15:03:43;20.00;99.90
55369;DHT22;41247;49.736;8.752;2023-07-31T15:07:23;20.10;99.90
55369;DHT22;41247;49.736;8.752;2023-07-31T15:11:04;20.20;99.90
55369;DHT22;41247;49.736;8.752;2023-07-31T15:14:45;20.30;99.90
55369;DHT22;41247;49.736;8.752;2023-07-31T15:18:26;20.30;99.90
55369;DHT22;41247;49.736;8.752;2023-07-31T15:22:06;20.30;99.90
55369;DHT22;41247;49.736;8.752;2023-07-31T15:25:47;20.20;99.90
55369;DHT22;41247;49.736;8.752;2023-07-31T15:29:28;20.10;99.90
55369;DHT22;41247;49.736;8.752;2023-07-31T15:33:09;20.10;99.90
55369;DHT22;41247;49.736;8.752;2023-07-31T15:36:50;20.10;99.90
55369;DHT22;41247;49.736;8.752;2023-07-31T15:40:30;20.30;99.90
55369;DHT22;41247;49.736;8.752;2023-07-31T15:44:11;20.30;99.90
55369;DHT22;41247;49.736;8.752;2023-07-31T15:47:51;20.40;99.90
55369;DHT22;41247;49.736;8.752;2023-07-31T15:51:33;20.30;99.90
55369;DHT22;41247;49.736;8.752;2023-07-31T15:55:14;20.40;99.90
55369;DHT22;41247;49.736;8.752;2023-07-31T15:58:54;20.50;99.90
55369;DHT22;41247;49.736;8.752;2023-07-31T16:02:35;20.60;99.90
55369;DHT22;41247;49.736;8.752;2023-07-31T16:06:15;20.70;99.90
55369;DHT22;41247;49.736;8.752;2023-07-31T16:09:56;20.80;99.90
55369;DHT22;41247;49.736;8.752;2023-07-31T16:13:37;20.80;99.90
55369;DHT22;41247;49.736;8.752;2023-07-31T16:17:18;20.80;99.90
55369;DHT22;41247;49.736;8.752;2023-07-31T16:21:00;20.70;99.90
55369;DHT22;41247;49.736;8.752;2023-07-31T16:24:41;20.70;99.90
55369;DHT22;41247;49.736;8.752;2023-07-31T16:28:21;20.70;99.90
55369;DHT22;41247;49.736;8.752;2023-07-31T16:32:02;20.70;99.90
55369;DHT22;41247;49.736;8.752;2023-07-31T16:35:43;20.70;99.90
55369;DHT22;41247;49.736;8.752;2023-07-31T16:39:23;20.50;99.90
55369;DHT22;41247;49.736;8.752;2023-07-31T16:43:04;20.30;99.90
55369;DHT22;41247;49.736;8.752;2023-07-31T16:46:45;20.20;99.90
55369;DHT22;41247;49.736;8.752;2023-07-31T16:50:25;20.00;99.90
55369;DHT22;41247;49.736;8.752;2023-07-31T16:54:06;19.80;99.90
55369;DHT22;41247;49.736;8.752;2023-07-31T16:57:46;19.60;99.90
55369;DHT22;41247;49.736;8.752;2023-07-31T17:01:27;19.40;99.90
55369;DHT22;41247;49.736;8.752;2023-07-31T17:05:08;19.20;99.90
55369;DHT22;41247;49.736;8.752;2023-07-31T17:08:48;19.00;99.90
55369;DHT22;41247;49.736;8.752;2023-07-31T17:12:29;18.90;99.90
55369;DHT22;41247;49.736;8.752;2023-07-31T17:16:10;18.80;99.90
55369;DHT22;41247;49.736;8.752;2023-07-31T17:19:50;18.70;99.90
55369;DHT22;41247;49.736;8.752;2023-07-31T17:23:31;18.50;99.90
55369;DHT22;41247;49.736;8.752;2023-07-31T17:27:12;18.40;99.90
55369;DHT22;41247;49.736;8.752;2023-07-31T17:30:52;18.30;99.90
55369;DHT22;41247;49.736;8.752;2023-07-31T17:34:33;18.20;99.90
55369;DHT22;41247;49.736;8.752;2023-07-31T17:38:13;18.10;99.90
55369;DHT22;41247;49.736;8.752;2023-07-31T17:41:54;18.00;99.90
55369;DHT22;41247;49.736;8.752;2023-07-31T17:45:35;17.90;99.90
55369;DHT22;41247;49.736;8.752;2023-07-31T17:49:16;17.80;99.90
55369;DHT22;41247;49.736;8.752;2023-07-31T17:52:56;17.80;99.90
55369;DHT22;41247;49.736;8.752;2023-07-31T17:56:37;17.70;99.90
55369;DHT22;41247;49.736;8.752;2023-07-31T18:00:19;17.70;99.90
55369;DHT22;41247;49.736;8.752;2023-07-31T18:04:00;17.70;99.90
55369;DHT22;41247;49.736;8.752;2023-07-31T18:07:40;17.60;99.90
55369;DHT22;41247;49.736;8.752;2023-07-31T18:11:21;17.60;99.90
55369;DHT22;41247;49.736;8.752;2023-07-31T18:15:02;17.60;99.90
55369;DHT22;41247;49.736;8.752;2023-07-31T18:18:43;17.50;99.90
55369;DHT22;41247;49.736;8.752;2023-07-31T18:22:23;17.50;99.90
55369;DHT22;41247;49.736;8.752;2023-07-31T18:26:04;17.50;99.90
55369;DHT22;41247;49.736;8.752;2023-07-31T18:29:44;17.50;99.90
55369;DHT22;41247;49.736;8.752;2023-07-31T18:33:25;17.50;99.90
55369;DHT22;41247;49.736;8.752;2023-07-31T18:37:07;17.50;99.90
55369;DHT22;41247;49.736;8.752;2023-07-31T18:40:48;17.40;99.90
55369;DHT22;41247;49.736;8.752;2023-07-31T18:44:28;17.40;99.90
55369;DHT22;41247;49.736;8.752;2023-07-31T18:48:09;17.30;99.90
55369;DHT22;41247;49.736;8.752;2023-07-31T18:51:50;17.30;99.90
55369;DHT22;41247;49.736;8.752;2023-07-31T18:55:30;17.30;99.90
55369;DHT22;41247;49.736;8.752;2023-07-31T18:59:11;17.20;99.90
55369;DHT22;41247;49.736;8.752;2023-07-31T19:02:51;17.20;99.90
55369;DHT22;41247;49.736;8.752;2023-07-31T19:06:32;17.20;99.90
55369;DHT22;41247;49.736;8.752;2023-07-31T19:10:12;17.10;99.90
55369;DHT22;41247;49.736;8.752;2023-07-31T19:13:53;17.10;99.90
55369;DHT22;41247;49.736;8.752;2023-07-31T19:17:34;17.10;99.90
55369;DHT22;41247;49.736;8.752;2023-07-31T19:21:14;17.00;99.90
55369;DHT22;41247;49.736;8.752;2023-07-31T19:24:55;17.10;99.90
55369;DHT22;41247;49.736;8.752;2023-07-31T19:28:35;17.10;99.90
55369;DHT22;41247;49.736;8.752;2023-07-31T19:32:16;17.00;99.90
55369;DHT22;41247;49.736;8.752;2023-07-31T19:35:58;17.10;99.90
55369;DHT22;41247;49.736;8.752;2023-07-31T19:39:38;17.00;99.90
55369;DHT22;41247;49.736;8.752;2023-07-31T19:43:19;17.10;99.90
55369;DHT22;41247;49.736;8.752;2023-07-31T19:47:00;17.00;99.90
55369;DHT22;41247;49.736;8.752;2023-07-31T19:50:40;17.10;99.90
55369;DHT22;41247;49.736;8.752;2023-07-31T19:54:21;17.10;99.90
55369;DHT22;41247;49.736;8.752;2023-07-31T19:58:02;17.00;99.90
55369;DHT22;41247;49.736;8.752;2023-07-31T20:01:42;17.00;99.90
55369;DHT22;41247;49.736;8.752;2023-07-31T20:05:24;17.10;99.90
55369;DHT22;41247;49.736;8.752;2023-07-31T20:09:05;17.20;99.90
55369;DHT22;41247;49.736;8.752;2023-07-31T20:12:45;17.20;99.90
55369;DHT22;41247;49.736;8.752;2023-07-31T20:16:26;17.20;99.90
55369;DHT22;41247;49.736;8.752;2023-07-31T20:20:07;17.20;99.90
55369;DHT22;41247;49.736;8.752;2023-07-31T20:23:48;17.10;99.90
55369;DHT22;41247;49.736;8.752;2023-07-31T20:27:29;16.90;99.90
55369;DHT22;41247;49.736;8.752;2023-07-31T20:31:09;16.60;99.90
55369;DHT22;41247;49.736;8.752;2023-07-31T20:34:50;16.40;99.90
55369;DHT22;41247;49.736;8.752;2023-07-31T20:38:30;16.10;99.90
55369;DHT22;41247;49.736;8.752;2023-07-31T20:42:11;16.00;99.90
55369;DHT22;41247;49.736;8.752;2023-07-31T20:45:51;15.90;99.90
55369;DHT22;41247;49.736;8.752;2023-07-31T20:49:32;15.80;99.90
55369;DHT22;41247;49.736;8.752;2023-07-31T20:53:13;15.70;99.90
55369;DHT22;41247;49.736;8.752;2023-07-31T20:56:53;15.60;99.90
55369;DHT22;41247;49.736;8.752;2023-07-31T21:00:34;15.60;99.90
55369;DHT22;41247;49.736;8.752;2023-07-31T21:04:14;15.50;99.90
55369;DHT22;41247;49.736;8.752;2023-07-31T21:07:55;15.50;99.90
55369;DHT22;41247;49.736;8.752;2023-07-31T21:11:36;15.40;99.90
55369;DHT22;41247;49.736;8.752;2023-07-31T21:15:16;15.40;99.90
55369;DHT22;41247;49.736;8.752;2023-07-31T21:18:57;15.40;99.90
55369;DHT22;41247;49.736;8.752;2023-07-31T21:22:38;15.40;99.90
55369;DHT22;41247;49.736;8.752;2023-07-31T21:26:18;15.40;99.90
55369;DHT22;41247;49.736;8.752;2023-07-31T21:29:59;15.40;99.90
55369;DHT22;41247;49.736;8.752;2023-07-31T21:33:40;15.30;99.90
55369;DHT22;41247;49.736;8.752;2023-07-31T21:37:23;15.30;99.90
55369;DHT22;41247;49.736;8.752;2023-07-31T21:41:04;15.30;99.90
55369;DHT22;41247;49.736;8.752;2023-07-31T21:44:44;15.30;99.90
55369;DHT22;41247;49.736;8.752;2023-07-31T21:48:25;15.20;99.90
55369;DHT22;41247;49.736;8.752;2023-07-31T21:52:18;15.20;99.90
55369;DHT22;41247;49.736;8.752;2023-07-31T21:55:58;15.20;99.90
55369;DHT22;41247;49.736;8.752;2023-07-31T21:59:39;15.20;99.90
55369;DHT22;41247;49.736;8.752;2023-07-31T22:03:20;15.20;99.90
55369;DHT22;41247;49.736;8.752;2023-07-31T22:07:02;15.20;99.90
55369;DHT22;41247;49.736;8.752;2023-07-31T22:10:42;15.10;99.90
55369;DHT22;41247;49.736;8.752;2023-07-31T22:14:23;15.10;99.90
55369;DHT22;41247;49.736;8.752;2023-07-31T22:18:03;15.10;99.90
55369;DHT22;41247;49.736;8.752;2023-07-31T22:21:44;15.20;99.90
55369;DHT22;41247;49.736;8.752;2023-07-31T22:25:24;15.20;99.90
55369;DHT22;41247;49.736;8.752;2023-07-31T22:29:05;15.20;99.90
55369;DHT22;41247;49.736;8.752;2023-07-31T22:32:46;15.20;99.90
55369;DHT22;41247;49.736;8.752;2023-07-31T22:36:26;15.20;99.90
55369;DHT22;41247;49.736;8.752;2023-07-31T22:40:07;15.30;99.90
55369;DHT22;41247;49.736;8.752;2023-07-31T22:43:48;15.30;99.90
55369;DHT22;41247;49.736;8.752;2023-07-31T22:47:29;15.30;99.90
55369;DHT22;41247;49.736;8.752;2023-07-31T22:51:09;15.30;99.90
55369;DHT22;41247;49.736;8.752;2023-07-31T22:54:50;15.40;99.90
55369;DHT22;41247;49.736;8.752;2023-07-31T22:58:31;15.40;99.90
55369;DHT22;41247;49.736;8.752;2023-07-31T23:02:11;15.40;99.90
55369;DHT22;41247;49.736;8.752;2023-07-31T23:05:52;15.30;99.90
55369;DHT22;41247;49.736;8.752;2023-07-31T23:09:33;15.30;99.90
55369;DHT22;41247;49.736;8.752;2023-07-31T23:13:14;15.30;99.90
55369;DHT22;41247;49.736;8.752;2023-07-31T23:16:55;15.30;99.90
55369;DHT22;41247;49.736;8.752;2023-07-31T23:20:35;15.40;99.90
55369;DHT22;41247;49.736;8.752;2023-07-31T23:24:16;15.40;99.90